Time;durP1;ratioP1;P1;durP2;ratioP2;P2;SDS_P1;SDS_P2;PMS_P1;PMS_P2;Temp;Humidity;BMP_temperature;BMP_pressure;BME280_temperature;BME280_humidity;BME280_pressure;Samples;Min_cycle;Max_cycle;Signal;HPM_P1;HPM_P2
2023/07/09 00:00:52;;;;;;;1.65;1.33;;;27.90;46.90;;;;;;5126320;27;20490;-73
2023/07/09 00:03:19;;;;;;;2.30;1.95;;;27.90;46.80;;;;;;5109951;28;20031;-73
2023/07/09 00:05:48;;;;;;;2.25;1.40;;;27.90;47.00;;;;;;5105072;28;20081;-73
2023/07/09 00:08:34;;;;;;;2.60;1.20;;;27.90;47.00;;;;;;5112418;28;20059;-74
2023/07/09 00:11:00;;;;;;;3.22;1.50;;;27.80;47.00;;;;;;5108412;28;21770;-73
2023/07/09 00:13:27;;;;;;;3.75;1.80;;;27.70;47.00;;;;;;5107788;28;20051;-74
2023/07/09 00:15:58;;;;;;;1.52;1.42;;;27.80;47.00;;;;;;5106604;28;20158;-73
2023/07/09 00:18:24;;;;;;;2.25;1.63;;;27.80;47.10;;;;;;5108250;28;20059;-73
2023/07/09 00:20:50;;;;;;;2.92;1.70;;;27.80;46.90;;;;;;5106560;28;20094;-73
2023/07/09 00:23:19;;;;;;;1.67;1.38;;;27.70;47.40;;;;;;5107806;28;20046;-74
2023/07/09 00:25:46;;;;;;;2.20;1.40;;;27.80;47.70;;;;;;5108989;28;20074;-74
2023/07/09 00:28:19;;;;;;;1.70;1.60;;;27.70;47.70;;;;;;5106420;28;20019;-74
2023/07/09 00:30:46;;;;;;;3.17;1.48;;;27.70;47.80;;;;;;5104024;28;20040;-74
2023/07/09 00:33:18;;;;;;;5.18;1.77;;;27.70;48.00;;;;;;5091078;28;20075;-73
2023/07/09 00:35:51;;;;;;;2.42;1.30;;;27.70;48.00;;;;;;5107071;27;20056;-73
2023/07/09 00:38:21;;;;;;;1.98;1.33;;;27.80;48.10;;;;;;5108088;28;20399;-73
2023/07/09 00:41:17;;;;;;;4.63;1.73;;;27.70;48.10;;;;;;5108322;28;20071;-73
2023/07/09 00:43:46;;;;;;;2.38;1.67;;;27.80;48.20;;;;;;5086680;28;20052;-73
2023/07/09 00:46:24;;;;;;;3.95;1.77;;;27.80;48.30;;;;;;5070453;28;20466;-73
2023/07/09 00:49:00;;;;;;;2.75;1.85;;;27.70;48.30;;;;;;5087320;28;20046;-74
2023/07/09 00:51:28;;;;;;;1.50;1.40;;;27.80;48.40;;;;;;5070641;28;20174;-73
2023/07/09 00:54:07;;;;;;;2.38;1.70;;;27.70;48.40;;;;;;5085388;28;20051;-73
2023/07/09 00:56:40;;;;;;;5.35;1.50;;;27.70;48.40;;;;;;5090133;28;20161;-74
2023/07/09 00:59:12;;;;;;;2.25;1.60;;;27.70;48.40;;;;;;5072428;28;20515;-74
2023/07/09 01:01:40;;;;;;;1.98;1.63;;;27.70;48.30;;;;;;5094239;28;20040;-73
2023/07/09 01:04:08;;;;;;;2.45;1.70;;;27.70;48.10;;;;;;5075020;28;20032;-73
2023/07/09 01:06:47;;;;;;;1.95;1.77;;;27.60;48.20;;;;;;5042153;28;20049;-73
2023/07/09 01:09:14;;;;;;;3.10;1.75;;;27.70;48.10;;;;;;5039453;28;20036;-73
2023/07/09 01:11:40;;;;;;;6.25;1.67;;;27.80;48.10;;;;;;5037287;28;20155;-73
2023/07/09 01:14:09;;;;;;;4.30;2.05;;;27.80;48.20;;;;;;5048849;28;20150;-73
2023/07/09 01:16:42;;;;;;;7.53;1.88;;;27.60;48.10;;;;;;5046168;28;20072;-73
2023/07/09 01:19:08;;;;;;;2.03;1.80;;;27.50;48.20;;;;;;5046164;28;20047;-74
2023/07/09 01:21:34;;;;;;;2.92;1.80;;;27.60;48.30;;;;;;5090166;28;20044;-73
2023/07/09 01:24:37;;;;;;;1.48;1.38;;;27.50;48.60;;;;;;5075527;28;20413;-74
2023/07/09 01:27:04;;;;;;;7.60;1.70;;;27.60;48.90;;;;;;5063164;28;20496;-74
2023/07/09 01:29:35;;;;;;;1.85;1.67;;;27.50;48.90;;;;;;5092532;28;20036;-79
2023/07/09 01:32:03;;;;;;;7.53;1.90;;;27.60;49.00;;;;;;5089800;28;20052;-75
2023/07/09 01:34:30;;;;;;;3.97;1.63;;;27.60;49.10;;;;;;5086696;28;20040;-75
2023/07/09 01:36:56;;;;;;;4.65;1.65;;;27.70;49.20;;;;;;5095901;28;20494;-75
2023/07/09 01:39:23;;;;;;;3.08;2.33;;;27.60;49.30;;;;;;5115048;28;20035;-74
2023/07/09 01:41:49;;;;;;;1.90;1.70;;;27.70;49.30;;;;;;5115391;28;20478;-75
2023/07/09 01:44:15;;;;;;;2.40;1.85;;;27.50;49.40;;;;;;5113977;27;20139;-74
2023/07/09 01:46:42;;;;;;;2.75;1.85;;;27.70;49.40;;;;;;5117194;27;20032;-75
2023/07/09 01:49:08;;;;;;;2.20;1.60;;;27.60;49.50;;;;;;5114837;27;20035;-74
2023/07/09 01:51:36;;;;;;;5.75;1.60;;;27.60;49.50;;;;;;5116357;28;20475;-73
2023/07/09 01:54:02;;;;;;;2.10;1.85;;;27.60;49.60;;;;;;5099480;28;20452;-74
2023/07/09 01:56:29;;;;;;;4.60;1.95;;;27.60;49.60;;;;;;5115751;28;20028;-73
2023/07/09 01:59:01;;;;;;;1.65;1.23;;;27.60;49.70;;;;;;5113919;28;20074;-73
2023/07/09 02:01:33;;;;;;;2.35;1.75;;;27.70;49.60;;;;;;5113344;28;20035;-73
2023/07/09 02:04:01;;;;;;;2.58;1.50;;;27.70;49.60;;;;;;5096908;28;20118;-74
2023/07/09 02:06:33;;;;;;;2.08;1.88;;;27.60;49.60;;;;;;5115159;28;20047;-74
2023/07/09 02:08:58;;;;;;;2.92;1.70;;;27.60;49.60;;;;;;5113330;27;20038;-73
2023/07/09 02:11:25;;;;;;;3.08;1.23;;;27.50;49.70;;;;;;5112049;28;20039;-73
2023/07/09 02:13:51;;;;;;;1.70;1.52;;;27.60;49.70;;;;;;5112140;28;20801;-73
2023/07/09 02:16:17;;;;;;;2.05;1.90;;;27.60;49.60;;;;;;5111275;28;20115;-73
2023/07/09 02:18:43;;;;;;;2.03;1.55;;;27.50;49.70;;;;;;5112176;28;20115;-73
2023/07/09 02:21:09;;;;;;;2.70;1.65;;;27.60;49.70;;;;;;5112268;28;20034;-74
2023/07/09 02:23:35;;;;;;;4.25;1.65;;;27.50;49.80;;;;;;5091721;28;20047;-73
2023/07/09 02:26:01;;;;;;;2.25;1.60;;;27.50;49.80;;;;;;5099967;28;20514;-73
2023/07/09 02:28:27;;;;;;;2.97;1.65;;;27.40;49.90;;;;;;5094101;28;20461;-73
2023/07/09 02:30:53;;;;;;;1.60;1.50;;;27.50;50.00;;;;;;5091703;28;20495;-73
2023/07/09 02:33:20;;;;;;;1.80;1.60;;;27.50;50.10;;;;;;5089814;28;20117;-73
2023/07/09 02:35:47;;;;;;;1.48;1.38;;;27.50;50.10;;;;;;5088860;28;20127;-73
2023/07/09 02:38:12;;;;;;;3.83;1.60;;;27.60;50.20;;;;;;5089546;28;20066;-73
2023/07/09 02:40:39;;;;;;;2.42;1.75;;;27.50;50.20;;;;;;5088815;28;20888;-73
2023/07/09 02:43:05;;;;;;;2.58;1.73;;;27.50;50.20;;;;;;5088340;28;20049;-73
2023/07/09 02:45:31;;;;;;;3.75;1.63;;;27.50;50.30;;;;;;5072767;28;20518;-73
2023/07/09 02:47:57;;;;;;;4.07;1.50;;;27.50;50.30;;;;;;5089902;28;20071;-73
2023/07/09 02:50:23;;;;;;;4.20;1.70;;;27.60;50.40;;;;;;5084492;28;20397;-73
2023/07/09 02:52:50;;;;;;;1.50;1.40;;;27.60;50.40;;;;;;5072465;28;20155;-73
2023/07/09 02:55:16;;;;;;;3.00;1.73;;;27.60;50.40;;;;;;5090382;28;20102;-73
2023/07/09 02:57:41;;;;;;;2.88;1.83;;;27.70;50.50;;;;;;5088949;28;20124;-73
2023/07/09 03:00:08;;;;;;;3.35;1.77;;;27.60;50.40;;;;;;5085679;28;20133;-73
2023/07/09 03:02:35;;;;;;;3.00;2.03;;;27.50;50.40;;;;;;5071512;28;20048;-73
2023/07/09 03:05:01;;;;;;;3.40;1.63;;;27.60;50.40;;;;;;5073298;28;20143;-73
2023/07/09 03:07:26;;;;;;;2.60;1.77;;;27.60;50.40;;;;;;5112082;28;20039;-73
2023/07/09 03:09:53;;;;;;;2.30;1.90;;;27.60;50.40;;;;;;5111956;28;20027;-73
2023/07/09 03:12:19;;;;;;;2.13;1.60;;;27.50;50.40;;;;;;5111289;27;20038;-73
2023/07/09 03:14:49;;;;;;;1.70;1.60;;;27.60;50.50;;;;;;5110449;28;20485;-73
2023/07/09 03:17:15;;;;;;;5.55;1.75;;;27.60;50.50;;;;;;5108026;28;20502;-73
2023/07/09 03:19:41;;;;;;;2.03;1.38;;;27.50;50.60;;;;;;5110430;28;20031;-73
2023/07/09 03:22:07;;;;;;;2.72;1.75;;;27.40;50.50;;;;;;5111545;28;20047;-73
2023/07/09 03:24:33;;;;;;;1.70;1.60;;;27.40;50.60;;;;;;5111805;28;20038;-73
2023/07/09 03:26:59;;;;;;;2.70;1.90;;;27.40;50.60;;;;;;5110340;28;20114;-73
2023/07/09 03:29:25;;;;;;;1.70;1.60;;;27.40;50.70;;;;;;5108945;28;20024;-73
2023/07/09 03:31:51;;;;;;;1.77;1.67;;;27.40;50.80;;;;;;5107677;28;20063;-74
2023/07/09 03:34:18;;;;;;;1.85;1.70;;;27.40;50.80;;;;;;5112420;28;20173;-73
2023/07/09 03:36:44;;;;;;;3.20;1.58;;;27.40;50.80;;;;;;5110848;28;20485;-73
2023/07/09 03:39:10;;;;;;;3.55;1.90;;;27.40;50.90;;;;;;5111667;28;20032;-73
2023/07/09 03:41:36;;;;;;;1.67;1.58;;;27.30;50.90;;;;;;5109376;28;20042;-73
2023/07/09 03:44:03;;;;;;;2.58;2.03;;;27.60;50.90;;;;;;5109430;28;20057;-73
2023/07/09 03:46:29;;;;;;;2.30;1.30;;;27.50;50.90;;;;;;5109444;28;20116;-73
2023/07/09 03:48:55;;;;;;;1.60;1.50;;;27.40;51.00;;;;;;5110414;28;20051;-73
2023/07/09 03:51:21;;;;;;;3.10;1.52;;;27.60;51.00;;;;;;5110416;28;20186;-73
2023/07/09 03:53:47;;;;;;;4.03;1.60;;;27.40;51.00;;;;;;5111226;28;20555;-73
2023/07/09 03:56:13;;;;;;;4.65;1.60;;;27.50;51.00;;;;;;5109494;28;20035;-73
2023/07/09 03:58:39;;;;;;;5.72;2.15;;;27.40;51.00;;;;;;5083489;28;20388;-73
2023/07/09 04:01:05;;;;;;;3.20;1.63;;;27.50;51.00;;;;;;5116075;27;20126;-73
2023/07/09 04:03:31;;;;;;;2.03;1.55;;;27.60;50.90;;;;;;5108346;28;20028;-73
2023/07/09 04:05:57;;;;;;;4.57;2.05;;;27.60;50.90;;;;;;5112205;28;20190;-73
2023/07/09 04:08:25;;;;;;;4.38;1.80;;;27.40;50.90;;;;;;5109855;28;20115;-73
2023/07/09 04:10:55;;;;;;;3.70;1.80;;;27.50;50.90;;;;;;5111133;28;20063;-73
2023/07/09 04:13:21;;;;;;;2.72;1.70;;;27.50;50.80;;;;;;5110030;28;20044;-73
2023/07/09 04:15:48;;;;;;;3.72;1.90;;;27.50;50.90;;;;;;5109712;28;20031;-73
2023/07/09 04:18:13;;;;;;;1.98;1.50;;;27.40;50.90;;;;;;5109644;28;20048;-73
2023/07/09 04:20:39;;;;;;;1.75;1.65;;;27.40;50.90;;;;;;5109885;28;20543;-73
2023/07/09 04:23:06;;;;;;;1.90;1.40;;;27.50;50.90;;;;;;5109435;28;20194;-73
2023/07/09 04:25:32;;;;;;;2.25;1.80;;;27.50;50.90;;;;;;5110387;28;20031;-73
2023/07/09 04:27:59;;;;;;;3.70;1.42;;;27.40;50.90;;;;;;5109761;28;20031;-73
2023/07/09 04:30:25;;;;;;;2.80;1.83;;;27.40;50.90;;;;;;5111002;28;20027;-73
2023/07/09 04:32:51;;;;;;;1.92;1.65;;;27.40;50.90;;;;;;5106152;28;20380;-73
2023/07/09 04:35:17;;;;;;;1.60;1.50;;;27.50;50.90;;;;;;5110544;28;20084;-73
2023/07/09 04:37:43;;;;;;;3.00;1.48;;;27.40;50.90;;;;;;5111042;28;20047;-73
2023/07/09 04:40:11;;;;;;;2.90;1.40;;;27.50;51.00;;;;;;5108977;28;20024;-73
2023/07/09 04:42:39;;;;;;;2.63;1.60;;;27.40;51.00;;;;;;5109465;28;20044;-73
2023/07/09 04:45:06;;;;;;;3.33;1.52;;;27.30;50.70;;;;;;5109984;28;20051;-73
2023/07/09 04:47:32;;;;;;;2.95;1.77;;;27.50;50.80;;;;;;5109226;28;20039;-73
2023/07/09 04:49:58;;;;;;;3.08;1.52;;;27.40;51.00;;;;;;5107778;28;20019;-73
2023/07/09 04:52:24;;;;;;;1.40;1.10;;;27.30;51.00;;;;;;5092910;28;20115;-73
2023/07/09 04:54:50;;;;;;;1.48;1.38;;;27.30;51.00;;;;;;5106175;28;20043;-73
2023/07/09 04:57:16;;;;;;;2.13;1.65;;;27.40;51.40;;;;;;5108049;28;20028;-73
2023/07/09 04:59:42;;;;;;;2.70;1.52;;;27.30;51.40;;;;;;5106830;28;20032;-73
2023/07/09 05:02:08;;;;;;;2.15;1.73;;;27.30;51.50;;;;;;5100984;28;20045;-73
2023/07/09 05:04:34;;;;;;;4.10;1.67;;;27.40;51.60;;;;;;5087755;28;20610;-73
2023/07/09 05:07:00;;;;;;;2.88;1.67;;;27.40;51.60;;;;;;5088133;28;20650;-73
2023/07/09 05:09:26;;;;;;;3.03;1.45;;;27.60;51.70;;;;;;5098741;28;20069;-73
2023/07/09 05:11:52;;;;;;;2.45;1.80;;;27.40;51.70;;;;;;5107677;28;20787;-73
2023/07/09 05:14:18;;;;;;;1.90;1.60;;;27.40;51.70;;;;;;5105840;28;20039;-73
2023/07/09 05:16:48;;;;;;;1.45;1.35;;;27.50;51.80;;;;;;5105189;28;20047;-73
2023/07/09 05:19:14;;;;;;;1.10;1.00;;;27.40;51.80;;;;;;5091305;28;20027;-73
2023/07/09 05:21:40;;;;;;;3.13;1.95;;;27.60;51.80;;;;;;5106394;28;20067;-73
2023/07/09 05:24:07;;;;;;;1.85;1.65;;;27.60;51.80;;;;;;5106195;28;20066;-73
2023/07/09 05:26:33;;;;;;;2.28;1.52;;;27.60;51.70;;;;;;5088236;28;20040;-73
2023/07/09 05:28:59;;;;;;;2.28;1.40;;;27.60;51.80;;;;;;5073339;28;20051;-73
2023/07/09 05:31:25;;;;;;;1.85;1.65;;;27.60;51.80;;;;;;5106068;28;20058;-73
2023/07/09 05:33:51;;;;;;;2.47;1.92;;;27.70;51.80;;;;;;5110347;28;20044;-73
2023/07/09 05:36:19;;;;;;;1.25;1.05;;;27.70;51.80;;;;;;5108233;28;20015;-73
2023/07/09 05:38:46;;;;;;;1.55;1.05;;;27.60;51.80;;;;;;5110191;28;20059;-73
2023/07/09 05:41:16;;;;;;;1.30;0.73;;;27.60;51.80;;;;;;5108083;28;20085;-73
2023/07/09 05:43:44;;;;;;;2.63;1.70;;;27.70;51.70;;;;;;5113895;28;20023;-73
2023/07/09 05:46:10;;;;;;;0.63;0.63;;;27.70;51.70;;;;;;5112927;28;20554;-73
2023/07/09 05:48:36;;;;;;;0.50;0.50;;;27.60;51.70;;;;;;5114974;28;20502;-73
2023/07/09 05:51:03;;;;;;;0.75;0.75;;;27.70;51.70;;;;;;5114919;28;20035;-73
2023/07/09 05:53:29;;;;;;;1.65;1.55;;;27.70;51.70;;;;;;5113080;28;20038;-73
2023/07/09 05:55:56;;;;;;;2.47;1.58;;;27.70;51.70;;;;;;5117661;27;20408;-73
2023/07/09 05:58:23;;;;;;;1.90;1.60;;;27.80;51.70;;;;;;5115071;27;20031;-73
2023/07/09 06:00:57;;;;;;;2.00;1.80;;;27.70;51.70;;;;;;5091381;28;20131;-74
2023/07/09 06:03:26;;;;;;;0.90;0.90;;;27.70;51.70;;;;;;5110362;28;20031;-73
2023/07/09 06:05:53;;;;;;;2.67;1.83;;;27.70;51.70;;;;;;5105781;28;20059;-73
2023/07/09 06:08:22;;;;;;;1.45;1.00;;;27.80;51.70;;;;;;5104547;28;20040;-73
2023/07/09 06:11:01;;;;;;;1.63;1.50;;;27.80;51.70;;;;;;5103387;28;20121;-73
2023/07/09 06:13:30;;;;;;;1.52;1.40;;;27.90;51.70;;;;;;5103531;28;20081;-74
2023/07/09 06:15:57;;;;;;;4.30;1.58;;;27.80;51.60;;;;;;5107487;28;20060;-73
2023/07/09 06:18:28;;;;;;;0.50;0.50;;;28.00;52.20;;;;;;5103643;28;20444;-73
2023/07/09 06:20:56;;;;;;;1.33;1.23;;;27.80;51.60;;;;;;5105672;28;20552;-73
2023/07/09 06:23:22;;;;;;;1.05;1.02;;;27.80;51.60;;;;;;5124215;27;20042;-73
2023/07/09 06:25:48;;;;;;;0.40;0.40;;;27.90;51.60;;;;;;5111546;27;20038;-73
2023/07/09 06:28:20;;;;;;;0.90;0.90;;;27.80;51.60;;;;;;5107486;27;20040;-79
2023/07/09 06:30:47;;;;;;;0.73;0.73;;;27.70;51.40;;;;;;5103443;27;20020;-77
2023/07/09 06:33:15;;;;;;;2.45;1.58;;;28.00;55.30;;;;;;5107456;28;20027;-78
2023/07/09 06:35:52;;;;;;;2.22;1.63;;;28.00;55.80;;;;;;5113032;28;20060;-77
2023/07/09 06:38:19;;;;;;;6.90;1.95;;;28.20;56.40;;;;;;5112663;28;20039;-79
2023/07/09 06:40:45;;;;;;;6.75;2.05;;;28.30;56.60;;;;;;5112695;28;20432;-79
2023/07/09 06:43:11;;;;;;;0.93;0.90;;;28.40;56.80;;;;;;5111081;27;20043;-72
2023/07/09 06:45:49;;;;;;;2.72;1.58;;;28.30;55.00;;;;;;5103891;28;20094;-71
2023/07/09 06:48:14;;;;;;;2.83;1.98;;;28.20;49.80;;;;;;5106959;27;20027;-74
2023/07/09 06:50:40;;;;;;;3.60;2.67;;;28.10;50.70;;;;;;5105362;27;20558;-75
2023/07/09 06:53:06;;;;;;;2.75;2.17;;;28.20;51.20;;;;;;5110922;28;20039;-76
2023/07/09 06:55:33;;;;;;;2.63;2.42;;;28.30;51.30;;;;;;5102412;28;20047;-75
2023/07/09 06:57:59;;;;;;;4.38;2.58;;;28.10;50.70;;;;;;5105988;28;20055;-78
2023/07/09 07:00:25;;;;;;;4.32;2.70;;;28.20;51.20;;;;;;5110128;28;20032;-75
2023/07/09 07:02:51;;;;;;;4.85;2.10;;;28.20;49.80;;;;;;5109314;28;20060;-76
2023/07/09 07:05:18;;;;;;;3.00;2.70;;;28.20;49.90;;;;;;5077153;28;20032;-75
2023/07/09 07:07:44;;;;;;;4.95;3.00;;;28.10;49.60;;;;;;5111119;28;20044;-81
2023/07/09 07:10:10;;;;;;;3.08;2.00;;;28.30;49.70;;;;;;5111104;28;20469;-79
2023/07/09 07:12:48;;;;;;;4.82;2.55;;;28.30;49.20;;;;;;5111105;28;20177;-77
2023/07/09 07:15:16;;;;;;;5.50;2.25;;;28.30;49.00;;;;;;5069513;28;20063;-84
2023/07/09 07:17:42;;;;;;;5.22;1.83;;;28.30;50.10;;;;;;5034113;28;20462;-74
2023/07/09 07:20:10;;;;;;;2.00;1.77;;;28.30;49.10;;;;;;5070171;28;20066;-75
2023/07/09 07:22:37;;;;;;;2.95;1.70;;;28.10;46.50;;;;;;5065398;28;20036;-75
2023/07/09 07:25:04;;;;;;;2.28;2.08;;;28.20;45.30;;;;;;5082303;28;20051;-76
2023/07/09 07:27:30;;;;;;;1.60;1.50;;;28.20;44.80;;;;;;5073315;28;20149;-76
2023/07/09 07:29:57;;;;;;;2.00;1.80;;;28.20;44.40;;;;;;5085695;28;20055;-75
2023/07/09 07:32:24;;;;;;;2.60;2.33;;;28.10;43.20;;;;;;5090580;28;20503;-78
2023/07/09 07:34:50;;;;;;;1.45;1.15;;;28.20;43.80;;;;;;5070586;28;20566;-78
2023/07/09 07:37:20;;;;;;;3.63;1.85;;;28.20;43.00;;;;;;5057043;28;20043;-79
2023/07/09 07:39:49;;;;;;;4.95;1.70;;;28.20;43.10;;;;;;5085823;28;20032;-80
2023/07/09 07:42:15;;;;;;;1.92;1.73;;;28.20;43.40;;;;;;5081195;28;20060;-78
2023/07/09 07:44:41;;;;;;;4.78;1.63;;;28.30;44.30;;;;;;5047157;28;20626;-79
2023/07/09 07:47:07;;;;;;;4.13;2.00;;;28.40;44.00;;;;;;5089498;28;20036;-78
2023/07/09 07:49:33;;;;;;;2.45;2.00;;;28.30;43.70;;;;;;5103617;28;20114;-78
2023/07/09 07:52:03;;;;;;;4.63;2.17;;;28.30;44.20;;;;;;5111387;28;20039;-76
2023/07/09 07:54:31;;;;;;;3.72;2.35;;;28.40;44.30;;;;;;5111463;28;20503;-77
2023/07/09 07:56:58;;;;;;;2.75;1.80;;;28.40;44.30;;;;;;5109598;27;20146;-73
2023/07/09 07:59:24;;;;;;;3.78;1.60;;;28.40;43.80;;;;;;5125447;27;20404;-75
2023/07/09 08:01:50;;;;;;;3.13;1.92;;;28.40;43.40;;;;;;5112335;28;20043;-76
2023/07/09 08:04:16;;;;;;;2.65;2.30;;;28.40;43.20;;;;;;5110883;28;20088;-76
2023/07/09 08:06:42;;;;;;;4.00;2.08;;;28.30;42.60;;;;;;5111428;28;20031;-74
2023/07/09 08:09:08;;;;;;;1.83;1.52;;;28.50;41.90;;;;;;5112247;28;20108;-75
2023/07/09 08:11:34;;;;;;;1.35;0.93;;;28.40;41.60;;;;;;5109834;28;20032;-76
2023/07/09 08:14:01;;;;;;;1.52;1.42;;;28.40;40.30;;;;;;5108528;28;20414;-77
2023/07/09 08:16:27;;;;;;;1.95;1.23;;;28.30;40.40;;;;;;5115235;27;20024;-76
2023/07/09 08:18:54;;;;;;;2.17;1.98;;;28.30;40.20;;;;;;5108838;28;20085;-75
2023/07/09 08:21:20;;;;;;;2.13;1.80;;;28.30;40.20;;;;;;5110065;28;20574;-84
2023/07/09 08:23:46;;;;;;;3.08;1.80;;;28.30;40.40;;;;;;5109391;28;20091;-76
2023/07/09 08:26:12;;;;;;;1.83;1.52;;;28.30;40.40;;;;;;5110833;28;20491;-78
2023/07/09 08:28:38;;;;;;;2.03;1.70;;;28.30;40.50;;;;;;5112047;28;20089;-78
2023/07/09 08:31:04;;;;;;;1.60;0.80;;;28.30;40.70;;;;;;5107291;28;20024;-76
2023/07/09 08:33:31;;;;;;;2.58;2.20;;;28.30;40.40;;;;;;5106917;28;20368;-76
2023/07/09 08:35:57;;;;;;;2.08;1.88;;;28.30;40.40;;;;;;5107566;28;20512;-73
2023/07/09 08:38:23;;;;;;;2.33;2.13;;;28.20;41.30;;;;;;5109470;28;20409;-73
2023/07/09 08:40:59;;;;;;;2.88;1.77;;;28.20;41.30;;;;;;5106108;28;20059;-75
2023/07/09 08:44:02;;;;;;;2.17;1.98;;;28.10;41.30;;;;;;5101505;28;20454;-74
2023/07/09 08:46:34;;;;;;;3.00;1.65;;;28.10;41.00;;;;;;5108215;27;20043;-74
2023/07/09 08:49:02;;;;;;;3.43;2.43;;;28.10;41.30;;;;;;5108588;28;20038;-73
2023/07/09 08:51:48;;;;;;;6.20;2.03;;;28.00;42.50;;;;;;5107243;28;20234;-74
2023/07/09 08:54:28;;;;;;;1.50;1.40;;;28.10;43.00;;;;;;5110647;28;20762;-73
2023/07/09 08:56:58;;;;;;;5.05;2.63;;;28.30;42.90;;;;;;5110918;28;20038;-73
2023/07/09 08:59:24;;;;;;;2.72;2.00;;;28.20;43.70;;;;;;5107875;28;20050;-75
2023/07/09 09:01:55;;;;;;;5.47;2.30;;;28.50;44.40;;;;;;5106596;28;20050;-73
2023/07/09 09:04:37;;;;;;;7.97;2.30;;;28.50;44.30;;;;;;5107782;28;20587;-73
2023/07/09 09:07:18;;;;;;;4.43;2.80;;;28.40;43.60;;;;;;5111545;28;20527;-71
2023/07/09 09:09:50;;;;;;;2.88;2.22;;;28.50;45.00;;;;;;5109125;28;20031;-72
2023/07/09 09:12:22;;;;;;;;;;;28.50;44.60;;;;;;5110033;28;20079;-72
2023/07/09 09:15:01;;;;;;;2.40;1.92;;;28.50;43.50;;;;;;5107405;28;19914;-72
2023/07/09 09:17:29;;;;;;;2.60;1.73;;;28.50;42.70;;;;;;5110091;28;20634;-72
2023/07/09 09:19:59;;;;;;;2.80;1.80;;;28.40;42.30;;;;;;5113018;28;20035;-73
2023/07/09 09:22:30;;;;;;;2.15;1.90;;;28.50;42.00;;;;;;5111815;28;20504;-72
2023/07/09 09:25:15;;;;;;;3.70;2.35;;;28.40;41.80;;;;;;5114225;28;20035;-72
2023/07/09 09:27:42;;;;;;;2.20;1.90;;;28.40;41.60;;;;;;5115038;28;20039;-72
2023/07/09 09:30:16;;;;;;;2.20;2.00;;;28.40;41.40;;;;;;5113082;28;20080;-73
2023/07/09 09:32:45;;;;;;;6.57;2.85;;;28.60;41.10;;;;;;5115338;28;20031;-72
2023/07/09 09:35:14;;;;;;;2.22;1.83;;;28.40;41.00;;;;;;5113781;28;20153;-71
2023/07/09 09:37:40;;;;;;;2.78;2.20;;;28.30;40.70;;;;;;5115473;27;21413;-72
2023/07/09 09:40:09;;;;;;;1.90;1.63;;;28.40;40.50;;;;;;5097343;28;20039;-72
2023/07/09 09:42:35;;;;;;;2.83;1.85;;;28.30;40.20;;;;;;5114992;28;20031;-72
2023/07/09 09:45:02;;;;;;;3.03;1.70;;;28.30;40.10;;;;;;5113309;27;20127;-71
2023/07/09 09:47:28;;;;;;;2.75;2.08;;;28.30;39.80;;;;;;5115048;28;20165;-75
2023/07/09 09:49:54;;;;;;;1.98;1.70;;;28.40;39.60;;;;;;5113072;28;20038;-73
2023/07/09 09:52:34;;;;;;;2.75;2.17;;;28.30;39.40;;;;;;5094678;28;20514;-74
2023/07/09 09:55:11;;;;;;;2.47;1.75;;;28.30;39.30;;;;;;5104348;28;20448;-75
2023/07/09 09:57:37;;;;;;;2.28;1.83;;;28.40;39.20;;;;;;5115115;28;20043;-74
2023/07/09 10:00:06;;;;;;;3.50;1.88;;;28.40;39.50;;;;;;5114036;28;20472;-75
2023/07/09 10:02:40;;;;;;;2.30;1.70;;;28.40;40.00;;;;;;5112986;28;20487;-73
2023/07/09 10:05:27;;;;;;;2.10;1.77;;;28.40;40.60;;;;;;5110724;28;20118;-75
2023/07/09 10:08:07;;;;;;;2.17;1.90;;;28.30;41.30;;;;;;5113167;28;20460;-75
2023/07/09 10:10:34;;;;;;;3.20;2.60;;;28.30;42.00;;;;;;5114730;28;20032;-74
2023/07/09 10:13:07;;;;;;;3.60;2.10;;;28.30;42.80;;;;;;5129501;27;20047;-71
2023/07/09 10:15:45;;;;;;;2.00;1.67;;;28.30;43.50;;;;;;5112503;28;20046;-73
2023/07/09 10:18:29;;;;;;;2.40;2.15;;;28.30;43.60;;;;;;5112114;27;20032;-74
2023/07/09 10:21:10;;;;;;;3.22;2.15;;;28.30;43.60;;;;;;5115277;27;20047;-74
2023/07/09 10:23:46;;;;;;;3.25;1.83;;;28.30;43.50;;;;;;5111067;28;20028;-73
2023/07/09 10:26:20;;;;;;;3.55;2.17;;;28.30;43.50;;;;;;5112556;28;20043;-73
2023/07/09 10:29:14;;;;;;;2.67;1.95;;;28.30;43.50;;;;;;5112691;28;20429;-74
2023/07/09 10:31:56;;;;;;;28.83;4.70;;;28.40;46.00;;;;;;5113727;28;20034;-74
2023/07/09 10:34:48;;;;;;;4.55;2.47;;;28.40;47.40;;;;;;5112266;28;20136;-73
2023/07/09 10:37:20;;;;;;;2.43;2.13;;;28.50;46.90;;;;;;5111452;28;20046;-73
2023/07/09 10:39:55;;;;;;;4.00;2.00;;;28.50;46.50;;;;;;5114148;27;20027;-74
2023/07/09 10:42:29;;;;;;;2.60;1.98;;;28.40;45.30;;;;;;5113611;28;20044;-72
2023/07/09 10:45:03;;;;;;;3.35;2.03;;;28.40;45.60;;;;;;5113982;28;20056;-74
2023/07/09 10:47:44;;;;;;;3.80;2.28;;;28.40;45.30;;;;;;5112358;28;20058;-74
2023/07/09 10:50:37;;;;;;;1.88;1.77;;;28.40;45.20;;;;;;5109814;28;20674;-75
2023/07/09 10:53:38;;;;;;;3.65;1.70;;;28.40;45.60;;;;;;5089223;28;20040;-74
2023/07/09 10:56:21;;;;;;;3.67;2.08;;;28.70;47.70;;;;;;5050661;28;20129;-74
2023/07/09 10:59:01;;;;;;;3.28;2.13;;;28.80;47.30;;;;;;5037014;28;20131;-73
2023/07/09 11:01:35;;;;;;;4.90;2.40;;;28.90;47.90;;;;;;5028047;28;20050;-75
2023/07/09 11:04:08;;;;;;;2.38;1.63;;;28.90;48.60;;;;;;5029184;28;20458;-75
2023/07/09 11:06:43;;;;;;;4.47;2.03;;;28.90;46.90;;;;;;5026010;28;20052;-75
2023/07/09 11:09:32;;;;;;;4.82;2.17;;;28.80;47.80;;;;;;5029640;28;20497;-75
2023/07/09 11:12:36;;;;;;;3.42;2.30;;;28.90;48.60;;;;;;5027140;28;20033;-75
2023/07/09 11:15:25;;;;;;;6.15;1.80;;;29.00;50.60;;;;;;4946568;29;20036;-75
2023/07/09 11:17:51;;;;;;;4.78;1.80;;;29.00;47.30;;;;;;4951003;29;20106;-72
2023/07/09 11:20:25;;;;;;;4.95;2.10;;;28.80;46.20;;;;;;4950180;29;20668;-73
2023/07/09 11:23:01;;;;;;;2.75;2.05;;;28.80;46.10;;;;;;4919846;28;20051;-72
2023/07/09 11:25:32;;;;;;;2.85;2.00;;;28.90;46.00;;;;;;4944288;28;20054;-72
2023/07/09 11:28:06;;;;;;;2.00;1.80;;;28.90;45.90;;;;;;4950621;29;20039;-72
2023/07/09 11:30:33;;;;;;;2.67;1.90;;;28.90;46.00;;;;;;4935106;28;20050;-72
2023/07/09 11:33:03;;;;;;;2.28;1.75;;;28.90;46.00;;;;;;5015744;28;20048;-73
2023/07/09 11:35:53;;;;;;;2.78;1.85;;;28.80;46.00;;;;;;5015636;28;20099;-73
2023/07/09 11:38:22;;;;;;;2.40;1.98;;;28.90;45.80;;;;;;5012748;28;20121;-75
2023/07/09 11:40:52;;;;;;;2.40;2.20;;;28.90;45.80;;;;;;4997405;28;20046;-74
2023/07/09 11:43:35;;;;;;;3.75;1.88;;;28.90;46.00;;;;;;5009325;28;20394;-74
2023/07/09 11:46:28;;;;;;;2.25;1.77;;;28.90;46.10;;;;;;5027159;28;20100;-75
2023/07/09 11:48:57;;;;;;;2.13;1.67;;;29.00;46.80;;;;;;5047415;28;20727;-74
2023/07/09 11:51:47;;;;;;;3.35;1.80;;;28.80;46.20;;;;;;5099015;28;20035;-74
2023/07/09 11:54:13;;;;;;;2.15;1.95;;;28.80;46.30;;;;;;5110949;28;20395;-73
2023/07/09 11:56:39;;;;;;;3.53;1.85;;;28.80;46.50;;;;;;5111172;28;20043;-76
2023/07/09 11:59:08;;;;;;;2.22;2.03;;;28.70;46.80;;;;;;5107322;28;20032;-77
2023/07/09 12:01:54;;;;;;;1.95;1.60;;;28.80;46.90;;;;;;5110342;28;20039;-75
2023/07/09 12:04:32;;;;;;;2.53;1.80;;;28.70;47.20;;;;;;5091173;28;20020;-75
2023/07/09 12:07:01;;;;;;;4.13;2.13;;;28.80;47.10;;;;;;5106727;27;20042;-74
2023/07/09 12:09:39;;;;;;;3.20;1.70;;;28.80;47.50;;;;;;5111618;28;20032;-75
2023/07/09 12:12:20;;;;;;;2.60;1.85;;;28.70;47.90;;;;;;5111611;28;20554;-76
2023/07/09 12:14:47;;;;;;;3.40;1.80;;;28.70;47.90;;;;;;5108208;28;20398;-74
2023/07/09 12:17:13;;;;;;;4.30;1.95;;;28.60;47.60;;;;;;5110406;28;20027;-75
2023/07/09 12:19:39;;;;;;;2.55;2.03;;;28.60;47.50;;;;;;5107881;28;20023;-76
2023/07/09 12:22:09;;;;;;;7.40;2.33;;;28.60;47.60;;;;;;5109335;28;20039;-86
2023/07/09 12:24:42;;;;;;;4.85;1.98;;;28.60;47.80;;;;;;5112639;27;20508;-77
2023/07/09 12:27:23;;;;;;;3.13;1.80;;;28.60;47.80;;;;;;5105903;27;20387;-79
2023/07/09 12:29:52;;;;;;;3.15;1.67;;;28.60;47.80;;;;;;5101465;28;20043;-81
2023/07/09 12:32:18;;;;;;;3.63;2.35;;;28.70;47.80;;;;;;5107140;28;20032;-80
2023/07/09 12:34:51;;;;;;;3.97;1.80;;;28.60;47.80;;;;;;5109640;28;20027;-80
2023/07/09 12:37:20;;;;;;;3.92;1.98;;;28.50;47.80;;;;;;5104961;28;20019;-80
2023/07/09 12:39:49;;;;;;;5.22;2.38;;;28.60;47.70;;;;;;5111177;28;20035;-80
2023/07/09 12:42:25;;;;;;;5.38;1.70;;;28.60;47.70;;;;;;5111422;28;20061;-80
2023/07/09 12:44:51;;;;;;;2.05;1.73;;;28.50;47.60;;;;;;5108893;28;20077;-80
2023/07/09 12:47:19;;;;;;;2.58;1.75;;;28.60;47.60;;;;;;5109298;28;20039;-78
2023/07/09 12:49:47;;;;;;;2.75;1.83;;;28.60;47.60;;;;;;5098820;28;20032;-80
2023/07/09 12:52:19;;;;;;;2.15;1.75;;;28.50;47.60;;;;;;5100230;28;20383;-80
2023/07/09 12:55:21;;;;;;;4.60;2.10;;;28.50;47.50;;;;;;5107284;28;20059;-80
2023/07/09 12:57:48;;;;;;;2.50;1.67;;;28.60;47.50;;;;;;5050117;28;20036;-79
2023/07/09 13:00:17;;;;;;;6.50;1.95;;;28.50;47.50;;;;;;5066809;28;20044;-80
2023/07/09 13:02:43;;;;;;;3.33;1.77;;;28.40;47.50;;;;;;5049227;28;20435;-81